Time;durP1;ratioP1;P1;durP2;ratioP2;P2;SDS_P1;SDS_P2;PMS_P1;PMS_P2;Temp;Humidity;BMP_temperature;BMP_pressure;BME280_temperature;BME280_humidity;BME280_pressure;Samples;Min_cycle;Max_cycle;Signal;HPM_P1;HPM_P2
2021/02/06 00:01:16;;;;;;;1.6;1.3;;;;;;;;;;;;;
2021/02/06 00:03:43;;;;;;;3.7;1.8;;;;;;;;;;;;;
2021/02/06 00:06:08;;;;;;;2.3;1.4;;;;;;;;;;;;;
2021/02/06 00:08:34;;;;;;;2.5;1.2;;;;;;;;;;;;;
2021/02/06 00:11:01;;;;;;;3.3;1.4;;;;;;;;;;;;;
2021/02/06 00:13:32;;;;;;;3.2;1.5;;;;;;;;;;;;;
2021/02/06 00:16:00;;;;;;;2.1;1.3;;;;;;;;;;;;;
2021/02/06 00:18:25;;;;;;;2.5;1.6;;;;;;;;;;;;;
2021/02/06 00:20:54;;;;;;;2.9;1.6;;;;;;;;;;;;;
2021/02/06 00:23:24;;;;;;;2.3;1.4;;;;;;;;;;;;;
2021/02/06 00:25:52;;;;;;;2.6;1.4;;;;;;;;;;;;;
2021/02/06 00:28:17;;;;;;;2.6;1.4;;;;;;;;;;;;;
2021/02/06 00:30:44;;;;;;;2.5;1.4;;;;;;;;;;;;;
2021/02/06 00:33:09;;;;;;;2.4;1.4;;;;;;;;;;;;;
2021/02/06 00:35:38;;;;;;;7.2;3.1;;;;;;;;;;;;;
2021/02/06 00:38:03;;;;;;;1.3;1;;;;;;;;;;;;;
2021/02/06 00:40:28;;;;;;;2.8;1.2;;;;;;;;;;;;;
2021/02/06 00:42:55;;;;;;;2.2;0.9;;;;;;;;;;;;;
2021/02/06 00:45:20;;;;;;;1;0.9;;;;;;;;;;;;;
2021/02/06 00:47:45;;;;;;;2.9;1.8;;;;;;;;;;;;;
2021/02/06 00:50:12;;;;;;;4.1;1.4;;;;;;;;;;;;;
2021/02/06 00:52:37;;;;;;;3.3;1.6;;;;;;;;;;;;;
2021/02/06 00:55:02;;;;;;;3.4;1.3;;;;;;;;;;;;;
2021/02/06 00:57:29;;;;;;;3.7;1.8;;;;;;;;;;;;;
2021/02/06 00:59:54;;;;;;;2.5;1.1;;;;;;;;;;;;;
2021/02/06 01:02:20;;;;;;;1.4;1.1;;;;;;;;;;;;;
2021/02/06 01:04:45;;;;;;;3;2;;;;;;;;;;;;;
2021/02/06 01:07:12;;;;;;;7.5;3.8;;;;;;;;;;;;;
2021/02/06 01:09:37;;;;;;;3.1;1.9;;;;;;;;;;;;;
2021/02/06 01:12:05;;;;;;;1.6;1.2;;;;;;;;;;;;;
2021/02/06 01:14:36;;;;;;;2;1.2;;;;;;;;;;;;;
2021/02/06 01:17:01;;;;;;;3.6;1.6;;;;;;;;;;;;;
2021/02/06 01:19:29;;;;;;;1.7;1.4;;;;;;;;;;;;;
2021/02/06 01:21:59;;;;;;;1.4;1.2;;;;;;;;;;;;;
2021/02/06 01:24:24;;;;;;;1;0.9;;;;;;;;;;;;;
2021/02/06 01:26:52;;;;;;;1.4;0.9;;;;;;;;;;;;;
2021/02/06 01:29:17;;;;;;;2.1;1.3;;;;;;;;;;;;;
2021/02/06 01:31:45;;;;;;;1.3;0.9;;;;;;;;;;;;;
2021/02/06 01:34:10;;;;;;;2.5;1.2;;;;;;;;;;;;;
2021/02/06 01:36:38;;;;;;;1.2;1;;;;;;;;;;;;;
2021/02/06 01:39:04;;;;;;;2.1;1.3;;;;;;;;;;;;;
2021/02/06 01:41:32;;;;;;;2.1;1.5;;;;;;;;;;;;;
2021/02/06 01:44:02;;;;;;;2.6;1.7;;;;;;;;;;;;;
2021/02/06 01:46:27;;;;;;;3.7;2;;;;;;;;;;;;;
2021/02/06 01:48:54;;;;;;;4.4;1.3;;;;;;;;;;;;;
2021/02/06 01:51:19;;;;;;;1.3;1.2;;;;;;;;;;;;;
2021/02/06 01:53:48;;;;;;;3.2;1.4;;;;;;;;;;;;;
2021/02/06 01:56:13;;;;;;;2.3;1.6;;;;;;;;;;;;;
2021/02/06 01:58:41;;;;;;;2;1.1;;;;;;;;;;;;;
2021/02/06 02:01:06;;;;;;;1.5;1.1;;;;;;;;;;;;;
2021/02/06 02:03:34;;;;;;;1.8;1.3;;;;;;;;;;;;;
2021/02/06 02:06:04;;;;;;;1.8;1.4;;;;;;;;;;;;;
2021/02/06 02:08:29;;;;;;;1.6;1.1;;;;;;;;;;;;;
2021/02/06 02:10:54;;;;;;;0.9;0.6;;;;;;;;;;;;;
2021/02/06 02:13:22;;;;;;;1.9;1.6;;;;;;;;;;;;;
2021/02/06 02:15:50;;;;;;;3.1;1.9;;;;;;;;;;;;;
2021/02/06 02:18:16;;;;;;;3.4;1.1;;;;;;;;;;;;;
2021/02/06 02:20:41;;;;;;;2;1.2;;;;;;;;;;;;;
2021/02/06 02:23:08;;;;;;;1.2;0.7;;;;;;;;;;;;;
2021/02/06 02:25:33;;;;;;;3.2;0.9;;;;;;;;;;;;;
2021/02/06 02:28:00;;;;;;;1.6;1;;;;;;;;;;;;;
2021/02/06 02:30:25;;;;;;;1.8;0.9;;;;;;;;;;;;;
2021/02/06 02:32:50;;;;;;;1.9;1.3;;;;;;;;;;;;;
2021/02/06 02:35:18;;;;;;;4.1;1.1;;;;;;;;;;;;;
2021/02/06 02:37:44;;;;;;;4.4;1;;;;;;;;;;;;;
2021/02/06 02:40:11;;;;;;;1.9;0.9;;;;;;;;;;;;;
2021/02/06 02:42:36;;;;;;;9.6;1.9;;;;;;;;;;;;;
2021/02/06 02:45:02;;;;;;;4.3;2.3;;;;;;;;;;;;;
2021/02/06 02:47:27;;;;;;;5.8;1.8;;;;;;;;;;;;;
2021/02/06 02:49:52;;;;;;;1.4;1;;;;;;;;;;;;;
2021/02/06 02:52:17;;;;;;;2.7;1.1;;;;;;;;;;;;;
2021/02/06 02:54:44;;;;;;;1.3;0.8;;;;;;;;;;;;;
2021/02/06 02:57:09;;;;;;;1.7;0.9;;;;;;;;;;;;;
2021/02/06 02:59:35;;;;;;;0.9;0.6;;;;;;;;;;;;;
2021/02/06 03:02:00;;;;;;;0.8;0.6;;;;;;;;;;;;;
2021/02/06 03:04:26;;;;;;;2;0.7;;;;;;;;;;;;;
2021/02/06 03:06:51;;;;;;;2.4;0.9;;;;;;;;;;;;;
2021/02/06 03:09:16;;;;;;;0.6;0.6;;;;;;;;;;;;;
2021/02/06 03:11:41;;;;;;;0.7;0.6;;;;;;;;;;;;;
2021/02/06 03:14:06;;;;;;;1;0.8;;;;;;;;;;;;;
2021/02/06 03:16:32;;;;;;;0.6;0.6;;;;;;;;;;;;;
2021/02/06 03:18:58;;;;;;;1.2;0.7;;;;;;;;;;;;;
2021/02/06 03:21:23;;;;;;;0.6;0.6;;;;;;;;;;;;;
2021/02/06 03:23:49;;;;;;;0.7;0.4;;;;;;;;;;;;;
2021/02/06 03:26:14;;;;;;;0.9;0.6;;;;;;;;;;;;;
2021/02/06 03:28:40;;;;;;;1.5;0.8;;;;;;;;;;;;;
2021/02/06 03:31:05;;;;;;;0.6;0.6;;;;;;;;;;;;;
2021/02/06 03:33:31;;;;;;;2.2;0.7;;;;;;;;;;;;;
2021/02/06 03:35:56;;;;;;;0.8;0.6;;;;;;;;;;;;;
2021/02/06 03:38:22;;;;;;;0.6;0.6;;;;;;;;;;;;;
2021/02/06 03:40:48;;;;;;;1.2;0.8;;;;;;;;;;;;;
2021/02/06 03:43:14;;;;;;;0.9;0.6;;;;;;;;;;;;;
2021/02/06 03:45:39;;;;;;;0.8;0.6;;;;;;;;;;;;;
2021/02/06 03:48:06;;;;;;;1;0.6;;;;;;;;;;;;;
2021/02/06 03:50:31;;;;;;;1.9;0.8;;;;;;;;;;;;;
2021/02/06 03:52:57;;;;;;;2.5;1.1;;;;;;;;;;;;;
2021/02/06 03:55:22;;;;;;;1.6;1.1;;;;;;;;;;;;;
2021/02/06 03:57:48;;;;;;;1.5;0.8;;;;;;;;;;;;;
2021/02/06 04:02:32;;;;;;;2.7;0.9;;;;;;;2.24;90.06934;929.421;;;;
2021/02/06 04:05:03;;;;;;;1.2;0.8;;;;;;;2.26;89.68066;929.4812;;;;
2021/02/06 04:07:28;;;;;;;0.6;0.6;;;;;;;2.34;89.02832;929.4213;;;;
2021/02/06 04:09:55;;;;;;;1;0.8;;;;;;;2.55;87.83887;929.4111;;;;
2021/02/06 04:12:27;;;;;;;1.7;0.7;;;;;;;2.05;90.64648;929.298;;;;
2021/02/06 04:14:58;;;;;;;0.7;0.6;;;;;;;2.43;89.06934;929.4136;;;;
2021/02/06 04:17:35;;;;;;;0.6;0.6;;;;;;;2.2;89.82617;929.4102;;;;
2021/02/06 04:20:08;;;;;;;1;0.7;;;;;;;2.56;88.16602;929.402;;;;
2021/02/06 04:22:35;;;;;;;1.5;1.1;;;;;;;2.37;88.1377;929.5516;;;;
2021/02/06 04:25:05;;;;;;;2.6;1.4;;;;;;;2.54;87.3418;929.5137;;;;
2021/02/06 04:27:32;;;;;;;1;0.9;;;;;;;2.72;86.29395;929.6733;;;;
2021/02/06 04:30:02;;;;;;;2.6;1.1;;;;;;;2.54;86.43457;929.5781;;;;
2021/02/06 04:32:27;;;;;;;2.8;1.2;;;;;;;2.52;86.83398;929.5517;;;;
2021/02/06 04:34:52;;;;;;;2.7;0.8;;;;;;;2.19;87.83105;929.6512;;;;
2021/02/06 04:37:18;;;;;;;1.7;0.9;;;;;;;2.23;88.34277;929.5009;;;;
2021/02/06 04:39:48;;;;;;;1;0.9;;;;;;;2.38;87.56836;929.5321;;;;
2021/02/06 04:42:13;;;;;;;1.8;1;;;;;;;2.52;86.95898;929.3743;;;;
2021/02/06 04:44:43;;;;;;;1.2;1;;;;;;;2.16;88.6416;929.5277;;;;
2021/02/06 04:47:12;;;;;;;1.6;1.2;;;;;;;2.35;88.49219;929.457;;;;
2021/02/06 04:49:37;;;;;;;5.6;1.3;;;;;;;2.14;89.26465;929.4377;;;;
2021/02/06 04:52:04;;;;;;;7;2.6;;;;;;;2.07;89.6543;929.4352;;;;
2021/02/06 04:54:29;;;;;;;8;4.8;;;;;;;2.01;89.5625;929.4414;;;;
2021/02/06 04:56:57;;;;;;;12.6;4.9;;;;;;;2.1;89.14453;929.4916;;;;
2021/02/06 04:59:22;;;;;;;6.8;3;;;;;;;1.53;92.2002;929.4916;;;;
2021/02/06 05:01:51;;;;;;;4.5;2;;;;;;;1.42;93.20313;929.4492;;;;
2021/02/06 05:04:16;;;;;;;3.3;1.9;;;;;;;1.65;92.25;929.4742;;;;
2021/02/06 05:06:43;;;;;;;4.6;2.2;;;;;;;1.28;93.87695;929.5444;;;;
2021/02/06 05:09:09;;;;;;;4;1.4;;;;;;;1.39;94.0127;929.5226;;;;
2021/02/06 05:11:36;;;;;;;1;0.9;;;;;;;1.6;93.56738;929.5085;;;;
2021/02/06 05:14:06;;;;;;;1.2;1.1;;;;;;;1.99;91.4502;929.37;;;;
2021/02/06 05:16:38;;;;;;;2.3;1.2;;;;;;;2.2;90.46484;929.2594;;;;
2021/02/06 05:19:09;;;;;;;1.8;1.5;;;;;;;2.25;89.625;929.2217;;;;
2021/02/06 05:21:36;;;;;;;3;1.8;;;;;;;2.32;88.54102;929.1686;;;;
2021/02/06 05:24:07;;;;;;;2.2;1.6;;;;;;;2.18;88.60254;929.2101;;;;
2021/02/06 05:26:32;;;;;;;2.9;1.5;;;;;;;2.36;88.37988;929.1947;;;;
2021/02/06 05:28:58;;;;;;;2.3;1.5;;;;;;;2.44;87.91699;929.1539;;;;
2021/02/06 05:31:23;;;;;;;6.1;1.4;;;;;;;2.49;87.74707;929.1378;;;;
2021/02/06 05:33:54;;;;;;;2.3;1.6;;;;;;;2.49;87.60156;929.1692;;;;
2021/02/06 05:36:24;;;;;;;4;1.5;;;;;;;2.3;88.29297;929.2207;;;;
2021/02/06 05:38:49;;;;;;;1.8;1.4;;;;;;;2.06;89.87402;929.1711;;;;
2021/02/06 05:41:20;;;;;;;5.8;1.2;;;;;;;2.26;89.01074;929.1216;;;;
2021/02/06 05:43:51;;;;;;;4.4;1.7;;;;;;;2.26;88.93262;929.0659;;;;
2021/02/06 05:46:24;;;;;;;3.6;2;;;;;;;2.43;88.59863;929.1858;;;;
2021/02/06 05:48:51;;;;;;;2.7;1.7;;;;;;;2.55;87.55859;929.158;;;;
2021/02/06 05:51:15;;;;;;;3.9;2.2;;;;;;;2.68;86.87891;929.1858;;;;
2021/02/06 05:53:44;;;;;;;7.6;3.7;;;;;;;2.57;86.55566;929.2372;;;;
2021/02/06 05:56:09;;;;;;;1.9;1.5;;;;;;;2.52;86.72168;929.2469;;;;
2021/02/06 05:58:34;;;;;;;2.4;1.2;;;;;;;2.55;86.99805;929.0622;;;;
2021/02/06 06:01:00;;;;;;;2.1;1.6;;;;;;;2.49;87.48926;929.1135;;;;
2021/02/06 06:03:25;;;;;;;2.4;1.6;;;;;;;2.52;87.63184;929.0874;;;;
2021/02/06 06:05:53;;;;;;;4.4;2.4;;;;;;;2.38;87.79199;929.0695;;;;
2021/02/06 06:08:18;;;;;;;2.9;1.9;;;;;;;1.99;90.14063;929.0779;;;;
2021/02/06 06:10:44;;;;;;;2.5;1.7;;;;;;;1.79;91.44043;929.1664;;;;
2021/02/06 06:13:14;;;;;;;2.3;1.2;;;;;;;1.67;92.84668;929.0606;;;;
2021/02/06 06:15:50;;;;;;;1.6;1.1;;;;;;;1.73;92.71387;928.9875;;;;
2021/02/06 06:18:18;;;;;;;1.8;1.3;;;;;;;1.88;92.61035;928.8968;;;;
2021/02/06 06:20:44;;;;;;;1.7;1.2;;;;;;;2.28;91.01953;928.7932;;;;
2021/02/06 06:23:14;;;;;;;1.2;0.8;;;;;;;2.34;90.0791;928.7834;;;;
2021/02/06 06:25:39;;;;;;;1.9;1.2;;;;;;;2.13;90.4043;928.7795;;;;
2021/02/06 06:28:11;;;;;;;1.3;1.1;;;;;;;1.84;92.82617;928.7844;;;;
2021/02/06 06:30:43;;;;;;;2.7;1.5;;;;;;;1.71;93.87305;928.8378;;;;
2021/02/06 06:33:17;;;;;;;1.2;1.1;;;;;;;1.72;94.42285;928.8514;;;;
2021/02/06 06:35:48;;;;;;;1.3;0.9;;;;;;;1.73;94.3916;928.6824;;;;
2021/02/06 06:38:13;;;;;;;1.9;1.3;;;;;;;1.7;94.91992;928.7215;;;;
2021/02/06 06:40:41;;;;;;;5;1.2;;;;;;;1.78;94.64941;928.6633;;;;
2021/02/06 06:43:11;;;;;;;2.8;1.1;;;;;;;1.85;94.51758;928.6599;;;;
2021/02/06 06:45:48;;;;;;;4.1;1.2;;;;;;;1.96;94.20801;928.6392;;;;
2021/02/06 06:48:18;;;;;;;0.7;0.7;;;;;;;2.33;93.05859;928.6457;;;;
2021/02/06 06:50:49;;;;;;;1.8;1.3;;;;;;;2.48;91.94922;928.7181;;;;
2021/02/06 06:53:16;;;;;;;1.5;1.1;;;;;;;2.78;91.22852;928.8597;;;;
2021/02/06 06:55:46;;;;;;;4.5;2.3;;;;;;;2.98;90.02441;928.8361;;;;
2021/02/06 06:58:20;;;;;;;2.8;1.4;;;;;;;2.67;89.74609;928.803;;;;
2021/02/06 07:00:45;;;;;;;5.5;1.3;;;;;;;2.81;89.65137;928.6703;;;;
2021/02/06 07:03:15;;;;;;;2.9;1.9;;;;;;;2.68;89.99707;928.6799;;;;
2021/02/06 07:05:43;;;;;;;3.5;2.2;;;;;;;2.78;89.85938;928.7636;;;;
2021/02/06 07:08:08;;;;;;;3.1;1.6;;;;;;;2.66;90.55176;928.7902;;;;
2021/02/06 07:10:41;;;;;;;2;1;;;;;;;2.54;91.83594;928.7523;;;;
2021/02/06 07:13:10;;;;;;;2.5;1.4;;;;;;;2.66;91.61621;928.8058;;;;
2021/02/06 07:15:36;;;;;;;1.8;0.9;;;;;;;2.89;90.61328;928.7509;;;;
2021/02/06 07:18:04;;;;;;;1.1;0.8;;;;;;;3.13;89.86621;928.7878;;;;
2021/02/06 07:20:31;;;;;;;1.5;0.9;;;;;;;3.41;88.64551;928.7227;;;;
2021/02/06 07:23:03;;;;;;;0.9;0.8;;;;;;;3.53;87.27734;928.7542;;;;
2021/02/06 07:25:34;;;;;;;3.6;1.2;;;;;;;3.65;86.9209;928.7766;;;;
2021/02/06 07:28:04;;;;;;;2.2;1.1;;;;;;;3.63;86.80273;928.7753;;;;
2021/02/06 07:30:29;;;;;;;5.1;2.5;;;;;;;3.69;86.56836;928.7852;;;;
2021/02/06 07:33:00;;;;;;;8.3;4.4;;;;;;;3.73;86.16211;928.8624;;;;
2021/02/06 07:35:33;;;;;;;6.7;3.1;;;;;;;4;85.54199;928.8881;;;;
2021/02/06 07:38:08;;;;;;;3.7;2.3;;;;;;;3.84;85.52051;928.8403;;;;
2021/02/06 07:40:33;;;;;;;6.3;2.9;;;;;;;4.24;84.73438;928.912;;;;
2021/02/06 07:43:01;;;;;;;3.4;2;;;;;;;4.49;83.5459;928.8819;;;;
2021/02/06 07:45:38;;;;;;;6.6;2.1;;;;;;;4.85;82.52344;928.7375;;;;
2021/02/06 07:48:05;;;;;;;6.2;2;;;;;;;5.23;81.23242;928.7547;;;;
2021/02/06 07:50:39;;;;;;;2.4;1.5;;;;;;;5.6;79.98242;928.7637;;;;
2021/02/06 07:53:08;;;;;;;4.6;1.8;;;;;;;6.02;78.07324;928.6688;;;;
2021/02/06 07:55:41;;;;;;;4.7;1.9;;;;;;;6.13;77.57129;928.6644;;;;
2021/02/06 07:58:15;;;;;;;3.8;2.2;;;;;;;6.8;75.86035;928.5669;;;;
2021/02/06 08:00:54;;;;;;;4.1;2.2;;;;;;;6.66;73.63965;928.6298;;;;
2021/02/06 08:03:27;;;;;;;3.7;2.2;;;;;;;6.43;74.47168;928.663;;;;
2021/02/06 08:05:53;;;;;;;3.2;2.1;;;;;;;6.18;75.84082;928.5715;;;;
2021/02/06 08:08:23;;;;;;;1.7;1.6;;;;;;;6.65;75.38086;928.4667;;;;
2021/02/06 08:10:48;;;;;;;4.7;2.1;;;;;;;7.42;72.09375;928.5198;;;;
2021/02/06 08:13:21;;;;;;;2.9;2;;;;;;;8.16;69.12988;928.6361;;;;
2021/02/06 08:15:51;;;;;;;4.7;2.4;;;;;;;8.93;66.35059;928.4369;;;;
2021/02/06 08:18:16;;;;;;;2.2;1.4;;;;;;;9.88;62.41699;928.503;;;;
2021/02/06 08:20:46;;;;;;;3.1;1.8;;;;;;;11.04;59.33789;928.4086;;;;
2021/02/06 08:23:11;;;;;;;2.8;1.3;;;;;;;12.84;53.79883;928.4877;;;;
2021/02/06 08:25:42;;;;;;;1.8;1.3;;;;;;;13.04;51.76855;928.4465;;;;
2021/02/06 08:28:03;;;;;;;2.9;1.7;;;;;;;12.87;52.26367;928.3795;;;;
2021/02/06 08:30:33;;;;;;;3.3;1.9;;;;;;;14.38;49.42871;928.4984;;;;
2021/02/06 08:32:58;;;;;;;3.6;1.6;;;;;;;15.72;45.29297;928.476;;;;
2021/02/06 08:35:23;;;;;;;2.8;1.5;;;;;;;16.67;43.16797;928.3428;;;;
2021/02/06 08:37:49;;;;;;;2.5;1.1;;;;;;;17.44;40.56445;928.2657;;;;
2021/02/06 08:40:14;;;;;;;5.2;1.5;;;;;;;17.2;40.04492;928.3622;;;;
2021/02/06 08:42:40;;;;;;;1.6;1.1;;;;;;;17.27;40.3291;928.3426;;;;
2021/02/06 08:45:05;;;;;;;2.2;1.2;;;;;;;15.85;43.16895;928.4391;;;;
2021/02/06 08:47:32;;;;;;;1.5;1.3;;;;;;;17.89;39.99121;928.3221;;;;
2021/02/06 08:49:57;;;;;;;1.6;1.2;;;;;;;18.98;37.49414;928.2411;;;;
2021/02/06 08:52:24;;;;;;;1.5;1;;;;;;;18.95;36.83984;928.1755;;;;
2021/02/06 08:54:49;;;;;;;2.3;1;;;;;;;17.89;38.46973;928.2338;;;;
2021/02/06 08:57:18;;;;;;;8.9;1.2;;;;;;;16.58;40.9375;928.216;;;;
2021/02/06 08:59:48;;;;;;;1.7;1.1;;;;;;;16.71;41.13379;928.2015;;;;
2021/02/06 09:02:13;;;;;;;4.8;1.4;;;;;;;15.41;43.63281;928.2213;;;;
2021/02/06 09:04:41;;;;;;;2.4;0.9;;;;;;;15.61;44.06934;928.2225;;;;
2021/02/06 09:07:06;;;;;;;1.5;1.1;;;;;;;15.73;44.52051;928.2396;;;;
2021/02/06 09:09:33;;;;;;;1.3;0.9;;;;;;;15.82;44.55273;928.3058;;;;
2021/02/06 09:12:01;;;;;;;5.2;1.7;;;;;;;15.5;43.91992;928.2155;;;;
2021/02/06 09:14:33;;;;;;;2.6;1.3;;;;;;;15.1;44.05176;928.1624;;;;
2021/02/06 09:16:59;;;;;;;1.2;0.6;;;;;;;14.4;44.8916;928.128;;;;
2021/02/06 09:19:24;;;;;;;0.5;0.3;;;;;;;14.14;44.33496;928.1306;;;;
2021/02/06 09:21:53;;;;;;;1.3;0.9;;;;;;;13.91;46.6709;928.1301;;;;
2021/02/06 09:24:23;;;;;;;2.3;1.3;;;;;;;14.13;47.05078;928.2534;;;;
2021/02/06 09:26:48;;;;;;;7.4;1.3;;;;;;;14.05;47.45703;928.2076;;;;
2021/02/06 09:29:18;;;;;;;4.1;1.2;;;;;;;14.06;45.95117;928.1908;;;;
2021/02/06 09:31:48;;;;;;;3.3;0.7;;;;;;;14.06;46.08887;928.1187;;;;
2021/02/06 09:34:17;;;;;;;1.6;0.8;;;;;;;13.28;45.8457;928.1273;;;;
2021/02/06 09:36:53;;;;;;;1;0.8;;;;;;;12.81;48.72266;928.1267;;;;
2021/02/06 09:39:21;;;;;;;1;0.7;;;;;;;13.03;49.11426;928.1023;;;;
2021/02/06 09:41:56;;;;;;;2.7;1.6;;;;;;;13.55;48.94336;928.1509;;;;
2021/02/06 09:44:25;;;;;;;1.8;1;;;;;;;13.92;49.2959;928.062;;;;
2021/02/06 09:46:50;;;;;;;1.2;0.8;;;;;;;14.14;46.34961;928.0698;;;;
2021/02/06 09:49:19;;;;;;;1.9;0.7;;;;;;;14.4;46.86133;928.0726;;;;
2021/02/06 09:51:50;;;;;;;1.1;0.6;;;;;;;14.87;46.3252;928.0815;;;;
2021/02/06 09:54:21;;;;;;;4.4;1.1;;;;;;;15.02;43.13184;928.0488;;;;
2021/02/06 09:56:51;;;;;;;2.5;0.9;;;;;;;15.21;43.85645;927.9838;;;;
2021/02/06 09:59:23;;;;;;;1.6;0.7;;;;;;;15.58;41.47754;928.0875;;;;
2021/02/06 10:01:47;;;;;;;0.5;0.4;;;;;;;15.81;39.91699;928.0577;;;;
2021/02/06 10:04:17;;;;;;;2.1;0.7;;;;;;;16.38;39.07813;927.9517;;;;
2021/02/06 10:06:49;;;;;;;4.9;0.8;;;;;;;17.36;39.07227;927.9381;;;;
2021/02/06 10:09:21;;;;;;;2.6;0.9;;;;;;;18.09;37.39551;927.9071;;;;
2021/02/06 10:11:49;;;;;;;1.9;0.7;;;;;;;18.53;36.67676;927.8921;;;;
2021/02/06 10:14:19;;;;;;;2.4;1;;;;;;;18.11;35.34082;927.8909;;;;
2021/02/06 10:16:47;;;;;;;3;0.5;;;;;;;18.05;35.74219;927.8441;;;;
2021/02/06 10:19:19;;;;;;;1.1;0.6;;;;;;;18.98;34.16504;927.8022;;;;
2021/02/06 10:21:44;;;;;;;1.1;0.7;;;;;;;18.69;34.27051;927.7503;;;;
2021/02/06 10:24:12;;;;;;;7.2;1.6;;;;;;;18.57;35.02734;927.7651;;;;
2021/02/06 10:26:44;;;;;;;5.7;1.4;;;;;;;17.81;35.60645;927.7385;;;;
2021/02/06 10:29:13;;;;;;;0.8;0.5;;;;;;;17.18;36.92383;927.7803;;;;
2021/02/06 10:31:43;;;;;;;7.3;0.7;;;;;;;16.86;36.97754;927.694;;;;
2021/02/06 10:34:14;;;;;;;2.5;1;;;;;;;17.69;35.21387;927.6339;;;;
2021/02/06 10:36:44;;;;;;;4.4;1;;;;;;;18.05;35.48633;927.6144;;;;
2021/02/06 10:39:09;;;;;;;0.6;0.5;;;;;;;18.75;34.92676;927.5617;;;;
2021/02/06 10:41:34;;;;;;;3.5;0.9;;;;;;;18.92;35.40527;927.5081;;;;
2021/02/06 10:43:59;;;;;;;2.5;0.7;;;;;;;18.81;36.66504;927.528;;;;
2021/02/06 10:46:25;;;;;;;1.3;0.7;;;;;;;18.83;35.49121;927.5178;;;;
2021/02/06 10:48:50;;;;;;;2.1;1;;;;;;;18.35;35.94043;927.5571;;;;
2021/02/06 10:51:17;;;;;;;1.5;0.4;;;;;;;18.55;34.74805;927.5538;;;;
2021/02/06 10:53:42;;;;;;;1;0.5;;;;;;;18.65;34.58203;927.4906;;;;
2021/02/06 10:56:08;;;;;;;2;0.9;;;;;;;18.16;36.76172;927.443;;;;
2021/02/06 10:58:33;;;;;;;0.8;0.5;;;;;;;17.77;38.5166;927.4467;;;;
2021/02/06 11:01:01;;;;;;;3.1;1.1;;;;;;;17.44;39.67188;927.4255;;;;
2021/02/06 11:03:25;;;;;;;2;0.6;;;;;;;16.62;41.84375;927.3423;;;;
2021/02/06 11:05:52;;;;;;;1.4;0.8;;;;;;;15.94;43.33887;927.437;;;;
2021/02/06 11:08:17;;;;;;;23.8;1;;;;;;;15.25;45.11719;927.4692;;;;
2021/02/06 11:10:44;;;;;;;0.4;0.4;;;;;;;15.22;45.12598;927.4219;;;;
2021/02/06 11:13:09;;;;;;;3.5;0.8;;;;;;;15.13;45.75195;927.451;;;;
2021/02/06 11:15:40;;;;;;;12.7;1.1;;;;;;;15.53;45.05469;927.4113;;;;
2021/02/06 11:18:06;;;;;;;0.4;0.4;;;;;;;15.89;44.72266;927.4079;;;;
2021/02/06 11:20:31;;;;;;;1.2;0.6;;;;;;;15.53;44.8457;927.3954;;;;
2021/02/06 11:22:58;;;;;;;1;0.8;;;;;;;15.54;45.27539;927.3742;;;;
2021/02/06 11:25:22;;;;;;;2.3;1.1;;;;;;;15.91;44.15723;927.3264;;;;
2021/02/06 11:27:49;;;;;;;2.1;0.9;;;;;;;15.73;44.64648;927.3303;;;;
2021/02/06 11:30:14;;;;;;;1.4;0.6;;;;;;;15.45;45.87695;927.2316;;;;
2021/02/06 11:32:41;;;;;;;1.7;0.6;;;;;;;15.79;45.7168;927.3141;;;;
2021/02/06 11:35:06;;;;;;;0.6;0.4;;;;;;;15.87;45.49414;927.1613;;;;
2021/02/06 11:37:33;;;;;;;1;0.4;;;;;;;16.11;45.0332;927.1167;;;;
2021/02/06 11:39:59;;;;;;;3.7;0.6;;;;;;;15.99;44.21094;927.014;;;;
2021/02/06 11:42:25;;;;;;;1.2;0.7;;;;;;;15.48;44.63281;927.1031;;;;
2021/02/06 11:44:50;;;;;;;2.1;0.8;;;;;;;15.56;44.72168;927.0584;;;;
2021/02/06 11:47:19;;;;;;;1.2;0.7;;;;;;;15.63;44.59082;927.0081;;;;
2021/02/06 11:49:43;;;;;;;0.7;0.5;;;;;;;15.6;44.49512;926.9958;;;;
2021/02/06 11:52:08;;;;;;;1.2;0.5;;;;;;;15.73;44.33496;926.8889;;;;
2021/02/06 11:54:34;;;;;;;1.6;0.8;;;;;;;15.84;44.25391;926.9047;;;;
2021/02/06 11:57:01;;;;;;;2.6;1.3;;;;;;;15.94;44.12598;926.838;;;;
2021/02/06 11:59:26;;;;;;;1.3;0.9;;;;;;;16.05;43.67285;926.7936;;;;
2021/02/06 12:01:52;;;;;;;1.4;0.6;;;;;;;16.25;43.47363;926.7861;;;;
2021/02/06 12:04:17;;;;;;;0.6;0.4;;;;;;;16.17;43.18848;926.7054;;;;
2021/02/06 12:06:44;;;;;;;0.4;0.4;;;;;;;16.12;43.42578;926.6717;;;;
2021/02/06 12:09:09;;;;;;;1.3;0.7;;;;;;;16.12;43.20605;926.6669;;;;
2021/02/06 12:11:35;;;;;;;0.3;0.3;;;;;;;16.2;42.83301;926.5817;;;;
2021/02/06 12:14:00;;;;;;;0.8;0.5;;;;;;;16.21;43.66699;926.5637;;;;
2021/02/06 12:16:26;;;;;;;0.9;0.4;;;;;;;16.3;42.99316;926.4792;;;;
2021/02/06 12:18:52;;;;;;;0.8;0.5;;;;;;;16.06;43.32813;926.3923;;;;
2021/02/06 12:21:18;;;;;;;2;0.7;;;;;;;15.47;45.39355;926.4481;;;;
2021/02/06 12:23:43;;;;;;;8;1.7;;;;;;;15.41;46.18359;926.3901;;;;
2021/02/06 12:26:11;;;;;;;3;1.5;;;;;;;14.84;47.3584;926.3896;;;;
2021/02/06 12:28:36;;;;;;;5.5;1;;;;;;;14.73;48.53418;926.3897;;;;
2021/02/06 12:31:05;;;;;;;4.4;1.4;;;;;;;14.76;48.37598;926.353;;;;
2021/02/06 12:33:29;;;;;;;3.2;1.8;;;;;;;15.07;48.79102;926.3391;;;;
2021/02/06 12:35:54;;;;;;;4.3;1.7;;;;;;;15.35;48.30371;926.3114;;;;
2021/02/06 12:38:19;;;;;;;2.2;1.3;;;;;;;15.49;48.72266;926.2557;;;;
2021/02/06 12:40:45;;;;;;;7.7;1.5;;;;;;;15.63;47.43262;926.2434;;;;
2021/02/06 12:43:11;;;;;;;0.8;0.6;;;;;;;15.72;47.25879;926.1766;;;;
2021/02/06 12:45:39;;;;;;;1.7;0.9;;;;;;;15.8;46.79297;926.1523;;;;
2021/02/06 12:48:04;;;;;;;2.1;1;;;;;;;15.83;46.48438;926.1133;;;;
2021/02/06 12:50:30;;;;;;;2.4;1.7;;;;;;;15.92;45.84668;926.1417;;;;
2021/02/06 12:52:55;;;;;;;1.6;1.2;;;;;;;15.8;46.50293;925.9849;;;;
2021/02/06 12:55:21;;;;;;;0.9;0.8;;;;;;;15.81;45.83398;925.986;;;;
2021/02/06 12:57:46;;;;;;;1.2;0.7;;;;;;;15.75;45.9668;925.9958;;;;
2021/02/06 13:00:16;;;;;;;1.1;0.9;;;;;;;15.66;46.06152;926.0016;;;;
2021/02/06 13:02:40;;;;;;;1.6;0.9;;;;;;;15.57;46.35254;925.9766;;;;
2021/02/06 13:05:10;;;;;;;1.5;1.3;;;;;;;15.42;46.47559;925.952;;;;
2021/02/06 13:07:39;;;;;;;2.8;1.5;;;;;;;15.15;46.53809;925.9632;;;;
2021/02/06 13:10:11;;;;;;;1.9;0.9;;;;;;;14.9;47.25;926.033;;;;
2021/02/06 13:12:36;;;;;;;4.2;1.1;;;;;;;14.76;48.00684;925.95;;;;
2021/02/06 13:15:03;;;;;;;4.2;2;;;;;;;14.7;48.59961;925.9396;;;;
2021/02/06 13:17:28;;;;;;;2.6;1.5;;;;;;;14.56;49.01074;925.9372;;;;
2021/02/06 13:19:53;;;;;;;3.1;1.4;;;;;;;14.24;50.44922;925.9398;;;;
2021/02/06 13:22:22;;;;;;;1.3;1;;;;;;;14.27;50.52148;925.8167;;;;
2021/02/06 13:24:47;;;;;;;3.3;1.5;;;;;;;14.35;50.53027;925.7651;;;;
2021/02/06 13:27:14;;;;;;;1;0.7;;;;;;;14.36;50.6123;925.7791;;;;
2021/02/06 13:29:39;;;;;;;1.7;1;;;;;;;14.29;49.94922;925.7936;;;;
2021/02/06 13:32:08;;;;;;;2.8;1.3;;;;;;;14.26;49.89844;925.7615;;;;
2021/02/06 13:34:33;;;;;;;1.5;0.8;;;;;;;14.24;50.56445;925.7061;;;;
2021/02/06 13:37:02;;;;;;;2.7;1.4;;;;;;;14.19;50.25781;925.7568;;;;
2021/02/06 13:39:29;;;;;;;8;1.3;;;;;;;14.15;50.17383;925.7464;;;;
2021/02/06 13:41:58;;;;;;;3.4;1.5;;;;;;;14.22;50.60742;925.6314;;;;
2021/02/06 13:44:20;;;;;;;2.5;1.1;;;;;;;14.27;50.61523;925.5908;;;;
2021/02/06 13:46:48;;;;;;;5.1;1.1;;;;;;;14.27;50.60254;925.5364;;;;
2021/02/06 13:49:13;;;;;;;1;0.8;;;;;;;14.3;50.55957;925.5675;;;;
2021/02/06 13:51:43;;;;;;;1.9;1.4;;;;;;;14.35;50.66797;925.5649;;;;
2021/02/06 13:54:13;;;;;;;3.6;1;;;;;;;14.26;50.53125;925.4998;;;;
2021/02/06 13:56:38;;;;;;;3.5;2.1;;;;;;;13.98;51.09863;925.551;;;;
2021/02/06 13:59:06;;;;;;;1.3;0.9;;;;;;;13.98;51.55859;925.4933;;;;
2021/02/06 14:01:33;;;;;;;1.8;1.2;;;;;;;14.03;52.23145;925.4035;;;;
2021/02/06 14:04:02;;;;;;;3.4;0.7;;;;;;;14.08;51.67383;925.4031;;;;
2021/02/06 14:06:27;;;;;;;1.1;0.6;;;;;;;14.09;51.68652;925.342;;;;
2021/02/06 14:08:55;;;;;;;2.9;1.2;;;;;;;14.12;52.23145;925.2933;;;;
2021/02/06 14:11:23;;;;;;;2.8;0.6;;;;;;;14.16;52.09766;925.285;;;;
2021/02/06 14:13:52;;;;;;;8.1;1.2;;;;;;;14.16;52.47656;925.2643;;;;
2021/02/06 14:16:40;;;;;;;3.3;1.4;;;;;;;14.09;52.97656;925.2676;;;;
2021/02/06 14:18:43;;;;;;;3.1;1.5;;;;;;;13.73;54.76074;925.2311;;;;
2021/02/06 14:21:08;;;;;;;3.7;1.7;;;;;;;13.77;55.23828;925.2043;;;;
2021/02/06 14:23:36;;;;;;;7.4;3.1;;;;;;;13.66;55.31543;925.1752;;;;
2021/02/06 14:26:02;;;;;;;5.6;2.5;;;;;;;13.55;55.77344;925.1373;;;;
2021/02/06 14:28:29;;;;;;;15.4;2.2;;;;;;;13.57;55.44141;925.0442;;;;
2021/02/06 14:30:54;;;;;;;17;8.5;;;;;;;13.45;54.70215;924.9942;;;;
2021/02/06 14:33:20;;;;;;;4.1;2.9;;;;;;;13.16;56.23828;924.9991;;;;
2021/02/06 14:35:45;;;;;;;4.4;2.9;;;;;;;13.25;56.58496;924.9713;;;;
2021/02/06 14:38:12;;;;;;;6.8;3.3;;;;;;;13.22;57.68262;925.0646;;;;
2021/02/06 14:40:39;;;;;;;5.8;2.4;;;;;;;13.22;57.68457;925.0078;;;;
2021/02/06 14:43:05;;;;;;;2.7;1.8;;;;;;;13.22;57.64844;925.0566;;;;
2021/02/06 14:45:30;;;;;;;3.4;1.8;;;;;;;13.26;57.48242;925.0645;;;;
2021/02/06 14:48:00;;;;;;;6.7;2.3;;;;;;;13.26;57.22949;924.9957;;;;
2021/02/06 14:50:25;;;;;;;3.5;2;;;;;;;13.23;56.44434;925.0411;;;;
2021/02/06 14:52:53;;;;;;;5.7;2.1;;;;;;;13.18;56.3916;925.1147;;;;
2021/02/06 14:55:17;;;;;;;10;2.7;;;;;;;12.98;56.48145;925.0999;;;;
2021/02/06 14:57:46;;;;;;;3.2;1.7;;;;;;;12.69;57.91211;925.093;;;;
2021/02/06 15:00:14;;;;;;;2.4;1.6;;;;;;;12.46;58.2373;925.0628;;;;
2021/02/06 15:02:43;;;;;;;8.6;2.8;;;;;;;12.52;58.38184;925.1344;;;;
2021/02/06 15:05:08;;;;;;;4.1;1.9;;;;;;;12.57;58.18262;925.21;;;;
2021/02/06 15:07:34;;;;;;;2.8;2;;;;;;;12.29;58.92383;925.0458;;;;
2021/02/06 15:09:59;;;;;;;2.7;1.6;;;;;;;12.19;58.45215;925.0848;;;;
2021/02/06 15:12:25;;;;;;;6.4;1.4;;;;;;;12.11;58.13281;925.1261;;;;
2021/02/06 15:14:50;;;;;;;2.7;1.4;;;;;;;11.93;58.72754;925.07;;;;
2021/02/06 15:17:16;;;;;;;3.8;1.8;;;;;;;11.79;59.68066;925.0219;;;;
2021/02/06 15:19:41;;;;;;;1.2;0.9;;;;;;;11.85;59.74707;925.0235;;;;
2021/02/06 15:22:09;;;;;;;1.9;1.5;;;;;;;11.73;59.90234;925.0305;;;;
2021/02/06 15:24:34;;;;;;;6.1;2.5;;;;;;;11.56;61.04492;925.0201;;;;
2021/02/06 15:27:00;;;;;;;1.9;1.3;;;;;;;11.6;61.33691;924.9756;;;;
2021/02/06 15:29:25;;;;;;;5.3;2.2;;;;;;;11.57;61.25293;924.8694;;;;
2021/02/06 15:31:54;;;;;;;2.8;1.3;;;;;;;11.51;61.20996;924.9867;;;;
2021/02/06 15:34:20;;;;;;;5.1;1.2;;;;;;;11.4;62.37305;924.9028;;;;
2021/02/06 15:36:49;;;;;;;8.6;1.8;;;;;;;11.43;62.52539;924.9083;;;;
2021/02/06 15:39:22;;;;;;;7.6;1.3;;;;;;;11.17;63.10547;924.851;;;;
2021/02/06 15:41:47;;;;;;;4.7;2.1;;;;;;;11.22;63.31934;924.8466;;;;
2021/02/06 15:44:12;;;;;;;2.3;0.6;;;;;;;10.98;63.78809;924.8622;;;;
2021/02/06 15:46:37;;;;;;;1.9;0.7;;;;;;;11.12;63.77344;924.8032;;;;